West Brevoort - northern half: Past 24 Hour Conditions

 

Baker Lake Airport

06:00 PM CST 25 November 2014
This table is a summary of hourly weather conditions for the past 24 hours.
Date / Time
(CST)
Wind(knots) Conditions Visibility(km) Pressure(kPa) Air tempC) Relative humidity(%) Dew pointC) Wind Chill
25 November 2014
18:00 NW 27 gust 32 Blowing Snow 10 101.6 -27 73 -31 -45
17:00 NW 16 Drifting Snow 24 101.6 -27 73 -31 -42
16:00 WNW 15 Drifting Snow 24 101.7 -27 71 -31 -42
15:00 NW 19 Drifting Snow 32 101.5 -28 72 -31 -44
14:00 WNW 7 Drifting Snow 32 101.6 -28 70 -32 -39
13:00 WNW 15 Drifting Snow 32 101.5 -29 70 -33 -43
12:00 NW 15 Drifting Snow 32 101.5 -29 69 -33 -44
11:00 NW 15 Drifting Snow 32 101.4 -30 71 -33 -45
10:00 NW 13 gust 18 Drifting Snow 32 101.5 -30 70 -34 -44
9:00 NW 14 Drifting Snow 32 101.4 -30 70 -34 -44
8:00 NW 17 Drifting Snow 24 101.4 -29 71 -33 -45
7:00 NW 16 gust 22 Drifting Snow 24 101.4 -28 71 -32 -43
6:00 NW 17 Drifting Snow 24 101.4 -27 71 -31 -42
5:00 NW 19 Drifting Snow 24 101.4 -26 71 -30 -42
4:00 NW 15 gust 20 Drifting Snow 24 101.4 -27 70 -30 -40
3:00 NW 16 Drifting Snow 24 101.4 -27 71 -31 -42
2:00 NW 12 Drifting Snow 24 101.3 -28 70 -32 -42
1:00 NW 11 Drifting Snow 16 101.3 -28 71 -32 -41
0:00 NW 13 Drifting Snow 16 101.2 -28 71 -32 -42
24 November 2014
23:00 NW 18 Drifting Snow 16 101.2 -30 70 -34 -46
22:00 NW 24 gust 29 Drifting Snow 16 101.2 -30 70 -34 -48
21:00 NW 23 Drifting Snow 16 101.2 -30 71 -34 -48
20:00 NW 21 Drifting Snow 16 101.2 -31 70 -34 -48
19:00 NW 20 gust 26 Blowing Snow 10 101.2 -31 71 -35 -48
18:00 NW 15 Blowing Snow 10 101.3 -31 70 -35 -47
 
Map of Arctic - Eastern Arctic marine weather areas Baker Lake Airport Chesterfield Inlet Airport Coral Harbour Airport Gjoa Haven Airport Kugaaruk Airport Rankin Inlet Airport Shepherd Bay Airport Whale Cove Airport Arctic Bay Brevoort Island Qikiqtarjuaq Airport Cape Dorset Airport Cape Dyer Cape Hooper Clyde Airport Grise Fiord Airport Hall Beach Airport Igloolik Airport Iqaluit Airport Longstaff Bluff Pangnirtung Airport Pond Inlet Airport Repulse Bay Airport Resolute Airport Resolution Island Rowley Island Airport Taloyoak Airport Wager Bay Akulivik Airport Ivujivik Airport Puvirnituq Airport Kangiqsujuaq Airport Kangirsuk Airport Quaqtaq Airport Tasiujaq Airport Cape Kakkiviak Cape Kiglapait Nain Airport Saglek Cape Mercy Kimmirut Airport Aupaluk Airport Salluit Airport Kangiqsualujjuaq Airport Fort Ross
Legend: buoyBuoy land stationLand Station